Time;durP1;ratioP1;P1;durP2;ratioP2;P2;SDS_P1;SDS_P2;PMS_P1;PMS_P2;Temp;Humidity;BMP_temperature;BMP_pressure;BME280_temperature;BME280_humidity;BME280_pressure;Samples;Min_cycle;Max_cycle;Signal;HPM_P1;HPM_P2
2022/08/02 14:19:30;;;;;;;;;;;;;;;26.69;64.68;99923.84;4477773;31;848208;-53
2022/08/02 14:21:58;;;;;;;;;;;;;;;26.63;64.37;99931.59;4508044;31;19987;-53
2022/08/02 14:24:40;;;;;;;;;;;;;;;26.68;63.33;99922.13;4508308;31;20320;-53
2022/08/02 14:27:08;;;;;;;;;;;;;;;26.65;63.04;99916.97;4507919;31;19960;-52
2022/08/02 14:29:36;;;;;;;;;;;;;;;26.70;62.74;99914.72;4507819;31;20043;-53
2022/08/02 14:32:03;;;;;;;;;;;;;;;26.75;62.49;99922.47;4506799;31;19980;-53
2022/08/02 14:34:31;;;;;;;;;;;;;;;26.77;62.20;99914.19;4508134;31;19972;-53
2022/08/02 14:36:59;;;;;;;;;;;;;;;26.58;62.54;99914.94;4508240;31;19972;-53
2022/08/02 14:39:26;;;;;;;;;;;;;;;26.47;62.85;99918.56;4475093;31;20046;-54
2022/08/02 14:42:10;;;;;;;;;;;;;;;26.86;66.18;99918.81;4437630;32;24535;-50
2022/08/02 14:44:38;;;;;;;;;;;;;;;27.02;68.19;99916.47;4440686;32;77278;-59
2022/08/02 14:47:25;;;;;;;;;;;;;;;27.05;70.57;99912.63;4444735;32;20027;-59
2022/08/02 14:49:53;;;;;;;;;;;;;;;26.67;66.74;99919.53;4444682;32;19974;-61
2022/08/02 14:52:21;;;;;;;;;;;;;;;26.44;67.59;99929.59;4444629;32;20301;-61
2022/08/02 14:54:49;;;;;;;;;;;;;;;26.70;68.39;99919.28;4444553;32;20008;-61
2022/08/02 14:57:17;;;;;;;;;;;;;;;26.80;67.91;99911.22;4444830;32;19973;-61
2022/08/02 14:59:44;;;;;;;;;;;;;;;26.94;68.43;99913.59;4444015;32;19989;-63
2022/08/02 15:02:12;;;;;;;;;;;;;;;26.93;66.70;99925.41;4444436;32;20019;-59
2022/08/02 15:04:41;;;;;;;;;;;;;;;27.23;67.53;99919.16;4445181;32;19969;-60
2022/08/02 15:07:10;;;;;;;;;;;;;;;27.39;66.02;99922.22;4444967;32;19969;-61
2022/08/02 15:09:38;;;;;;;;;;;;;;;27.56;67.43;99923.41;4445041;32;19985;-62
2022/08/02 15:12:10;;;;;;;;;;;;;;;27.50;63.35;99920.41;4840134;26;20001;-64
2022/08/02 15:14:39;;;;;;;;;;;;;;;27.53;63.58;99923.69;4445095;32;20037;-74
2022/08/02 15:17:07;;;;;;;;;;;;;;;27.36;61.18;99922.47;4445276;32;20309;-73
2022/08/02 15:19:35;;;;;;;;;;;;;;;27.20;61.34;99926.69;4439038;32;19989;-75
2022/08/02 15:22:23;;;;;;;;;;;;;;;27.19;62.06;99923.13;4434637;32;20048;-70
2022/08/02 15:24:51;;;;;;;;;;;;;;;27.15;62.89;99924.37;4434746;32;20330;-69
2022/08/02 15:27:18;;;;;;;;;;;;;;;27.47;61.50;99917.97;4434676;32;20036;-68
2022/08/02 15:29:50;;;;;;;;;;;;;;;27.76;60.26;99916.19;4434767;32;20005;-69
2022/08/02 15:32:18;;;;;;;;;;;;;;;28.03;59.21;99920.09;4434705;32;20005;-69
2022/08/02 15:34:46;;;;;;;;;;;;;;;28.18;58.61;99915.94;4434709;32;20291;-68
2022/08/02 15:37:14;;;;;;;;;;;;;;;28.24;58.38;99904.56;4434664;32;19971;-68
2022/08/02 15:39:42;;;;;;;;;;;;;;;28.31;58.17;99912.97;4420846;32;20261;-68
2022/08/02 15:42:09;;;;;;;;;;;;;;;28.35;58.04;99904.41;4434251;32;19985;-68
2022/08/02 15:44:38;;;;;;;;;;;;;;;28.41;57.96;99913.84;4434574;32;20023;-67
2022/08/02 15:47:06;;;;;;;;;;;;;;;28.46;57.86;99919.69;4434537;32;20280;-68
2022/08/02 15:49:34;;;;;;;;;;;;;;;28.51;57.80;99913.81;4434669;32;19986;-67
2022/08/02 15:52:08;;;;;;;;;;;;;;;28.56;57.69;99908.81;4434619;32;20359;-68
2022/08/02 15:54:37;;;;;;;;;;;;;;;28.55;57.77;99905.28;4434576;32;19970;-68
2022/08/02 15:57:04;;;;;;;;;;;;;;;28.47;58.07;99910.53;4434556;32;19974;-67
2022/08/02 15:59:33;;;;;;;;;;;;;;;28.48;58.27;99924.94;4434504;32;20005;-68
2022/08/02 16:02:00;;;;;;;;;;;;;;;28.49;58.21;99918.53;4434434;32;19997;-67
2022/08/02 16:04:28;;;;;;;;;;;;;;;28.54;58.06;99925.22;4434490;32;19994;-67
2022/08/02 16:06:56;;;;;;;;;;;;;;;28.58;57.95;99923.94;4434487;32;20253;-67
2022/08/02 16:09:27;;;;;;;;;;;;;;;28.62;57.87;99924.50;4434531;32;19986;-67
2022/08/02 16:11:55;;;;;;;;;;;;;;;28.65;57.79;99917.94;4433903;32;20343;-67
2022/08/02 16:14:23;;;;;;;;;;;;;;;28.67;57.79;99921.38;4419910;32;19977;-67
2022/08/02 16:16:51;;;;;;;;;;;;;;;28.71;57.78;99920.91;4434319;32;20030;-67
2022/08/02 16:19:19;;;;;;;;;;;;;;;28.74;57.75;99919.78;4420613;32;20001;-67
2022/08/02 16:22:06;;;;;;;;;;;;;;;28.75;57.71;99919.63;4434405;32;20008;-67
2022/08/02 16:24:38;;;;;;;;;;;;;;;28.77;57.68;99923.06;4434481;32;20282;-67
2022/08/02 16:27:08;;;;;;;;;;;;;;;28.78;57.69;99916.63;4434392;32;20265;-67
2022/08/02 16:29:36;;;;;;;;;;;;;;;28.81;57.67;99920.91;4434340;32;20042;-64
2022/08/02 16:32:04;;;;;;;;;;;;;;;28.81;57.68;99923.63;4433232;32;20296;-66
2022/08/02 16:34:32;;;;;;;;;;;;;;;28.83;57.69;99927.00;4434350;32;20278;-66
2022/08/02 16:37:20;;;;;;;;;;;;;;;28.85;57.65;99935.88;4422899;32;19974;-66
2022/08/02 16:39:51;;;;;;;;;;;;;;;28.86;57.71;99932.16;4434351;32;20286;-66
2022/08/02 16:42:19;;;;;;;;;;;;;;;28.89;57.74;99931.00;4434148;32;20005;-65
2022/08/02 16:44:52;;;;;;;;;;;;;;;28.88;57.76;99930.16;4433787;32;19969;-66
2022/08/02 16:47:21;;;;;;;;;;;;;;;28.88;57.86;99930.16;4434194;32;19984;-66
2022/08/02 16:50:09;;;;;;;;;;;;;;;28.90;57.92;99938.13;4434318;32;19986;-66
2022/08/02 16:52:38;;;;;;;;;;;;;;;28.90;58.00;99930.84;4434206;32;19993;-65
2022/08/02 16:55:10;;;;;;;;;;;;;;;28.89;58.08;99931.87;4434266;32;19970;-65
2022/08/02 16:57:42;;;;;;;;;;;;;;;28.88;58.20;99927.44;4434044;32;20041;-64
2022/08/02 17:00:16;;;;;;;;;;;;;;;28.89;58.25;99931.00;4434221;32;20274;-66
2022/08/02 17:02:44;;;;;;;;;;;;;;;28.89;58.34;99931.00;4434056;32;20064;-66
2022/08/02 17:05:13;;;;;;;;;;;;;;;28.87;58.39;99931.16;4434198;32;20000;-65
2022/08/02 17:07:41;;;;;;;;;;;;;;;28.85;58.43;99935.88;4434008;32;20238;-66
2022/08/02 17:10:32;;;;;;;;;;;;;;;28.85;58.52;99940.44;4434135;32;19978;-66
2022/08/02 17:13:05;;;;;;;;;;;;;;;28.82;58.59;99939.72;4433726;32;20044;-66
2022/08/02 17:15:38;;;;;;;;;;;;;;;28.81;58.67;99943.44;4434161;32;20045;-65
2022/08/02 17:18:27;;;;;;;;;;;;;;;28.79;58.70;99940.00;4419838;32;20265;-66
2022/08/02 17:20:55;;;;;;;;;;;;;;;28.77;58.87;99944.75;4433948;32;20002;-66
2022/08/02 17:23:22;;;;;;;;;;;;;;;28.75;58.85;99952.16;4433409;32;20092;-66
2022/08/02 17:26:11;;;;;;;;;;;;;;;28.73;58.96;99947.87;4434043;32;19974;-66
2022/08/02 17:28:40;;;;;;;;;;;;;;;28.70;59.00;99949.03;4433771;32;20230;-66
2022/08/02 17:31:31;;;;;;;;;;;;;;;28.68;59.08;99963.72;4433345;32;19982;-66
2022/08/02 17:34:22;;;;;;;;;;;;;;;28.64;59.17;99959.59;4434001;32;20003;-66
2022/08/02 17:36:54;;;;;;;;;;;;;;;28.62;59.21;99959.72;4433407;32;19974;-65
2022/08/02 17:39:22;;;;;;;;;;;;;;;28.63;59.12;99960.63;4433815;32;19973;-66
2022/08/02 17:42:01;;;;;;;;;;;;;;;28.62;59.10;99959.72;4433439;32;20057;-65
2022/08/02 17:44:30;;;;;;;;;;;;;;;28.59;59.05;99960.91;4433818;32;20053;-65
2022/08/02 17:47:05;;;;;;;;;;;;;;;28.56;59.13;99963.91;4433729;32;20171;-65
2022/08/02 17:49:34;;;;;;;;;;;;;;;28.53;59.24;99961.47;4433622;32;19969;-65
2022/08/02 17:52:14;;;;;;;;;;;;;;;28.48;59.39;99968.31;4433629;32;20002;-66
2022/08/02 17:55:03;;;;;;;;;;;;;;;28.42;59.63;99974.31;4433692;32;20319;-66
2022/08/02 17:57:31;;;;;;;;;;;;;;;28.29;60.01;99975.41;4433583;32;20033;-66
2022/08/02 18:00:19;;;;;;;;;;;;;;;28.20;60.36;99984.41;4433696;32;19977;-66
2022/08/02 18:02:51;;;;;;;;;;;;;;;28.11;60.83;99980.66;4433219;32;20000;-66
2022/08/02 18:05:23;;;;;;;;;;;;;;;28.08;61.07;99986.37;4433568;32;20004;-65
2022/08/02 18:08:11;;;;;;;;;;;;;;;28.03;61.24;99980.53;4433520;32;19973;-64
2022/08/02 18:10:44;;;;;;;;;;;;;;;27.99;61.51;99987.22;4433534;32;19991;-64
2022/08/02 18:13:15;;;;;;;;;;;;;;;27.94;61.78;99986.78;4433201;32;19997;-66
2022/08/02 18:15:43;;;;;;;;;;;;;;;27.91;62.03;99997.03;4433462;32;20004;-66
2022/08/02 18:18:15;;;;;;;;;;;;;;;27.87;62.27;99997.28;4433451;32;19977;-66
2022/08/02 18:20:56;;;;;;;;;;;;;;;27.87;62.37;99996.44;4433161;32;20274;-66
2022/08/02 18:23:49;;;;;;;;;;;;;;;27.87;62.41;100000.00;4433329;32;19985;-66
2022/08/02 18:26:27;;;;;;;;;;;;;;;27.80;62.57;100000.69;4433245;32;20047;-66
2022/08/02 18:28:55;;;;;;;;;;;;;;;27.78;62.66;100002.72;4433051;32;20063;-66
2022/08/02 18:31:28;;;;;;;;;;;;;;;27.75;62.69;100005.66;4433007;32;19969;-66
2022/08/02 18:34:05;;;;;;;;;;;;;;;27.74;62.76;100014.75;4432649;32;20316;-63
2022/08/02 18:36:36;;;;;;;;;;;;;;;27.70;62.73;100018.72;4433063;32;20008;-66
2022/08/02 18:39:14;;;;;;;;;;;;;;;27.67;62.90;100021.69;4433124;32;20357;-66
2022/08/02 18:41:49;;;;;;;;;;;;;;;27.64;62.96;100025.56;4432922;32;20293;-66
2022/08/02 18:44:16;;;;;;;;;;;;;;;27.62;63.00;100031.09;4432931;32;19978;-66
2022/08/02 18:46:49;;;;;;;;;;;;;;;27.59;63.15;100023.25;4432969;32;20008;-66
2022/08/02 18:49:22;;;;;;;;;;;;;;;27.57;63.17;100022.53;4432908;32;19984;-65
2022/08/02 18:52:15;;;;;;;;;;;;;;;27.93;60.96;100024.84;4432176;32;20325;-65
2022/08/02 18:54:57;;;;;;;;;;;;;;;27.62;62.72;100036.50;4433965;32;19989;-66
2022/08/02 18:57:42;;;;;;;;;;;;;;;27.61;62.92;100034.81;4435117;32;20014;-65
2022/08/02 19:00:30;;;;;;;;;;;;;;;27.52;63.22;100034.75;4434897;32;19977;-65
2022/08/02 19:03:04;;;;;;;;;;;;;;;27.49;63.36;100040.44;4434882;32;19973;-66
2022/08/02 19:05:34;;;;;;;;;;;;;;;27.47;63.46;100035.16;4435021;32;20326;-65
2022/08/02 19:08:20;;;;;;;;;;;;;;;27.44;63.58;100034.59;4434987;32;19989;-65
2022/08/02 19:10:53;;;;;;;;;;;;;;;27.45;63.54;100037.13;4434898;32;19981;-65
2022/08/02 19:13:23;;;;;;;;;;;;;;;27.46;63.49;100044.28;4434115;32;20011;-65
2022/08/02 19:15:51;;;;;;;;;;;;;;;27.40;63.62;100042.97;4434839;32;20292;-66
2022/08/02 19:18:19;;;;;;;;;;;;;;;27.39;63.75;100043.13;4434840;32;19986;-64
2022/08/02 19:21:07;;;;;;;;;;;;;;;27.36;63.80;100037.97;4434896;32;20261;-65
2022/08/02 19:23:39;;;;;;;;;;;;;;;27.37;63.81;100036.97;4434799;32;20001;-65
2022/08/02 19:26:21;;;;;;;;;;;;;;;27.34;63.79;100042.62;4434808;32;20325;-65
2022/08/02 19:28:52;;;;;;;;;;;;;;;27.32;63.96;100044.63;4434743;32;19989;-64
2022/08/02 19:31:21;;;;;;;;;;;;;;;27.30;64.07;100057.44;4434670;32;19982;-65
2022/08/02 19:33:49;;;;;;;;;;;;;;;27.30;64.13;100047.47;4434681;32;19983;-66
2022/08/02 19:36:34;;;;;;;;;;;;;;;27.29;64.23;100058.44;4434710;32;20001;-65
2022/08/02 19:39:02;;;;;;;;;;;;;;;27.28;64.29;100057.56;4434676;32;20258;-65
2022/08/02 19:41:33;;;;;;;;;;;;;;;27.28;64.39;100048.56;4434666;32;20266;-65
2022/08/02 19:44:10;;;;;;;;;;;;;;;27.27;64.47;100053.13;4434733;32;19973;-63
2022/08/02 19:46:55;;;;;;;;;;;;;;;27.26;64.55;100056.00;4434614;32;20001;-65
2022/08/02 19:49:23;;;;;;;;;;;;;;;27.26;64.61;100056.84;4434532;32;19985;-65
2022/08/02 19:52:08;;;;;;;;;;;;;;;27.26;64.59;100050.56;4434506;32;20059;-65
2022/08/02 19:54:48;;;;;;;;;;;;;;;27.27;64.54;100052.28;4434495;32;19977;-65
2022/08/02 19:57:22;;;;;;;;;;;;;;;27.24;64.50;100056.09;4421537;32;20324;-65
2022/08/02 19:59:52;;;;;;;;;;;;;;;27.21;64.63;100051.00;4434559;32;20001;-65
2022/08/02 20:02:24;;;;;;;;;;;;;;;27.22;64.61;100049.12;4434578;32;20353;-65
2022/08/02 20:04:52;;;;;;;;;;;;;;;27.19;64.71;100057.50;4434338;32;20008;-64
2022/08/02 20:07:25;;;;;;;;;;;;;;;27.17;64.74;100058.50;4434562;32;20029;-65
2022/08/02 20:10:13;;;;;;;;;;;;;;;27.16;64.75;100059.47;4434431;32;20031;-63
2022/08/02 20:12:53;;;;;;;;;;;;;;;27.15;64.80;100059.62;4434224;32;20267;-65
2022/08/02 20:15:21;;;;;;;;;;;;;;;27.16;64.73;100061.31;4434466;32;19974;-66
2022/08/02 20:18:12;;;;;;;;;;;;;;;27.20;64.59;100051.94;4434443;32;20312;-66
2022/08/02 20:20:53;;;;;;;;;;;;;;;27.19;64.51;100062.91;4434452;32;20004;-65
2022/08/02 20:23:25;;;;;;;;;;;;;;;27.15;64.61;100074.00;4434420;32;19977;-65
2022/08/02 20:26:00;;;;;;;;;;;;;;;27.15;64.58;100076.69;4434185;32;20080;-65
2022/08/02 20:28:31;;;;;;;;;;;;;;;27.12;64.76;100076.09;4433746;32;20354;-65
2022/08/02 20:30:59;;;;;;;;;;;;;;;27.11;64.77;100067.13;4420545;32;20095;-65
2022/08/02 20:33:35;;;;;;;;;;;;;;;27.11;64.75;100064.41;4434295;32;20010;-65
2022/08/02 20:36:25;;;;;;;;;;;;;;;27.13;64.73;100075.13;4434296;32;19977;-65
2022/08/02 20:38:58;;;;;;;;;;;;;;;27.14;64.55;100076.84;4434380;32;19981;-65
2022/08/02 20:41:26;;;;;;;;;;;;;;;27.13;64.61;100072.41;4434190;32;19994;-65
2022/08/02 20:44:10;;;;;;;;;;;;;;;27.13;64.58;100067.84;4434363;32;20278;-65
2022/08/02 20:46:56;;;;;;;;;;;;;;;27.11;64.57;100071.66;4434178;32;20012;-65
2022/08/02 20:49:26;;;;;;;;;;;;;;;27.08;64.65;100075.47;4434120;32;20020;-65
2022/08/02 20:52:08;;;;;;;;;;;;;;;27.08;64.70;100069.22;4433706;32;20048;-65
2022/08/02 20:54:51;;;;;;;;;;;;;;;27.11;64.57;100069.81;4434253;32;20304;-65
2022/08/02 20:57:20;;;;;;;;;;;;;;;27.09;64.57;100070.94;4434162;32;19978;-63
2022/08/02 21:00:08;;;;;;;;;;;;;;;27.10;64.58;100067.22;4434208;32;20279;-65
2022/08/02 21:02:36;;;;;;;;;;;;;;;27.09;64.59;100071.78;4433995;32;19994;-65
2022/08/02 21:05:04;;;;;;;;;;;;;;;27.09;64.52;100070.94;4420401;32;19985;-65
2022/08/02 21:07:44;;;;;;;;;;;;;;;27.07;64.65;100070.22;4434099;32;19969;-65
2022/08/02 21:10:20;;;;;;;;;;;;;;;27.06;64.69;100066.63;4434091;32;20037;-65
2022/08/02 21:12:50;;;;;;;;;;;;;;;27.06;64.81;100065.78;4433893;32;20053;-65
2022/08/02 21:15:18;;;;;;;;;;;;;;;27.05;64.85;100070.34;4434141;32;20021;-64
2022/08/02 21:17:47;;;;;;;;;;;;;;;27.03;64.99;100066.91;4433287;32;19985;-63
2022/08/02 21:20:29;;;;;;;;;;;;;;;27.06;65.01;100071.19;4434011;32;19977;-63
2022/08/02 21:22:57;;;;;;;;;;;;;;;27.01;65.22;100068.03;4433920;32;19997;-64
2022/08/02 21:25:27;;;;;;;;;;;;;;;27.02;65.36;100067.03;4433949;32;19973;-65
2022/08/02 21:28:15;;;;;;;;;;;;;;;27.04;65.28;100065.06;4433949;32;19991;-63
2022/08/02 21:30:49;;;;;;;;;;;;;;;27.02;65.27;100067.87;4433898;32;19981;-65
2022/08/02 21:33:20;;;;;;;;;;;;;;;27.02;65.26;100069.75;4433299;32;20099;-63
2022/08/02 21:35:51;;;;;;;;;;;;;;;26.98;65.28;100074.56;4433989;32;19969;-64
2022/08/02 21:38:18;;;;;;;;;;;;;;;26.98;65.31;100071.84;4433824;32;19965;-64
2022/08/02 21:41:04;;;;;;;;;;;;;;;27.00;65.27;100071.69;4433877;32;20000;-63
2022/08/02 21:43:38;;;;;;;;;;;;;;;26.97;65.31;100072.84;4433801;32;19993;-63
2022/08/02 21:46:10;;;;;;;;;;;;;;;26.98;65.30;100076.41;4433851;32;19974;-63
2022/08/02 21:48:41;;;;;;;;;;;;;;;26.96;65.34;100072.97;4433613;32;19991;-63
2022/08/02 21:51:11;;;;;;;;;;;;;;;26.96;65.34;100072.97;4433717;32;19982;-63
2022/08/02 21:53:42;;;;;;;;;;;;;;;26.93;65.37;100071.41;4433642;32;19989;-63
2022/08/02 21:56:30;;;;;;;;;;;;;;;26.93;65.35;100066.84;4422321;32;20049;-63
2022/08/02 21:58:58;;;;;;;;;;;;;;;26.92;65.42;100075.06;4433551;32;19993;-63
2022/08/02 22:01:43;;;;;;;;;;;;;;;26.92;65.37;100069.66;4433562;32;20000;-64
2022/08/02 22:04:20;;;;;;;;;;;;;;;26.88;65.44;100069.06;4433685;32;19993;-63
2022/08/02 22:06:53;;;;;;;;;;;;;;;26.91;65.39;100070.66;4433052;32;19982;-63
2022/08/02 22:09:25;;;;;;;;;;;;;;;26.91;65.37;100070.66;4433335;32;20350;-63
2022/08/02 22:12:13;;;;;;;;;;;;;;;26.89;65.38;100065.41;4433216;32;20024;-64
2022/08/02 22:14:48;;;;;;;;;;;;;;;26.88;65.39;100071.78;4433431;32;20272;-63
2022/08/02 22:17:33;;;;;;;;;;;;;;;26.88;65.44;100069.06;4433509;32;19977;-63
2022/08/02 22:20:20;;;;;;;;;;;;;;;26.87;65.47;100071.91;4433312;32;19993;-63
2022/08/02 22:22:48;;;;;;;;;;;;;;;26.85;65.54;100073.88;4433212;32;20031;-64
2022/08/02 22:25:18;;;;;;;;;;;;;;;26.84;65.52;100067.63;4433227;32;20002;-63
2022/08/02 22:27:58;;;;;;;;;;;;;;;26.84;65.54;100074.87;4433284;32;19970;-63
2022/08/02 22:30:46;;;;;;;;;;;;;;;26.84;65.53;100081.13;4434875;32;19981;-63
2022/08/02 22:36:13;;;;;;;;;;;;;;;26.83;65.56;100087.53;4435234;32;20008;-64
2022/08/02 22:38:45;;;;;;;;;;;;;;;26.81;65.55;100078.69;4435147;32;19984;-63
2022/08/02 22:41:13;;;;;;;;;;;;;;;26.80;65.67;100076.12;4434997;32;20019;-63
2022/08/02 22:43:42;;;;;;;;;;;;;;;26.79;65.71;100079.81;4421172;32;20039;-63
2022/08/02 22:46:09;;;;;;;;;;;;;;;26.80;65.70;100081.53;4435094;32;20024;-63
2022/08/02 22:48:43;;;;;;;;;;;;;;;26.80;65.67;100084.22;4435044;32;19965;-63
2022/08/02 22:51:12;;;;;;;;;;;;;;;26.79;65.63;100083.38;4434905;32;19987;-63
2022/08/02 22:53:45;;;;;;;;;;;;;;;27.14;64.93;100088.53;4434964;32;20001;-63
2022/08/02 22:56:13;;;;;;;;;;;;;;;26.86;65.29;100087.28;4435053;32;19989;-63
2022/08/02 22:58:41;;;;;;;;;;;;;;;26.86;65.28;100092.69;4435012;32;19977;-64
2022/08/02 23:01:29;;;;;;;;;;;;;;;26.83;65.37;100089.38;4434916;32;20339;-63
2022/08/02 23:03:57;;;;;;;;;;;;;;;26.81;65.47;100094.03;4434918;32;19985;-63
2022/08/02 23:06:28;;;;;;;;;;;;;;;26.81;65.52;100094.03;4434963;32;20036;-64
2022/08/02 23:08:59;;;;;;;;;;;;;;;26.80;65.53;100097.75;4434875;32;19978;-65
2022/08/02 23:11:27;;;;;;;;;;;;;;;26.78;65.63;100086.19;4434252;32;19989;-63
2022/08/02 23:13:54;;;;;;;;;;;;;;;26.78;65.54;100088.91;4434630;32;20060;-64
2022/08/02 23:22:00;;;;;;;;;;;;;;;26.76;65.64;100093.59;4434713;32;19970;-62
2022/08/02 23:24:31;;;;;;;;;;;;;;;26.77;65.60;100092.59;4434804;32;20000;-63
2022/08/02 23:27:00;;;;;;;;;;;;;;;26.76;65.60;100094.44;4434309;32;20005;-64
2022/08/02 23:29:28;;;;;;;;;;;;;;;26.74;65.71;100096.41;4434727;32;19969;-62
2022/08/02 23:31:55;;;;;;;;;;;;;;;26.72;65.78;100087.59;4434609;32;20028;-63
2022/08/02 23:34:25;;;;;;;;;;;;;;;26.72;65.79;100094.84;4434719;32;20036;-63
2022/08/02 23:36:56;;;;;;;;;;;;;;;26.73;65.87;100093.84;4434776;32;19989;-63
2022/08/02 23:39:27;;;;;;;;;;;;;;;26.71;65.98;100096.66;4434560;32;20041;-63
2022/08/02 23:41:55;;;;;;;;;;;;;;;26.70;66.08;100097.66;4420651;32;20295;-63
2022/08/02 23:44:24;;;;;;;;;;;;;;;26.68;66.22;100092.41;4434700;32;20083;-63
2022/08/02 23:46:56;;;;;;;;;;;;;;;27.51;63.09;100081.75;4434750;32;20012;-62
2022/08/02 23:49:24;;;;;;;;;;;;;;;27.52;62.37;100088.88;4434534;32;19969;-62
2022/08/02 23:51:52;;;;;;;;;;;;;;;27.61;62.13;100086.22;4434471;32;19977;-64
2022/08/02 23:54:25;;;;;;;;;;;;;;;27.65;61.62;100084.97;4434674;32;20277;-65
2022/08/02 23:56:52;;;;;;;;;;;;;;;27.52;62.14;100081.59;4434544;32;20004;-63
2022/08/02 23:59:20;;;;;;;;;;;;;;;27.49;62.24;100087.31;4434600;32;19988;-63
